Time;durP1;ratioP1;P1;durP2;ratioP2;P2;SDS_P1;SDS_P2;PMS_P1;PMS_P2;Temp;Humidity;BMP_temperature;BMP_pressure;BME280_temperature;BME280_humidity;BME280_pressure;Samples;Min_cycle;Max_cycle;Signal;HPM_P1;HPM_P2
2021/11/06 00:01:12;;;;;;;6.43;1.40;;;8.00;99.90;;;;;;4963367;28;20093;-63
2021/11/06 00:03:39;;;;;;;2.90;0.63;;;8.10;99.90;;;;;;4967412;28;20078;-63
2021/11/06 00:06:06;;;;;;;4.05;0.90;;;8.10;99.90;;;;;;4958174;28;20355;-66
2021/11/06 00:08:33;;;;;;;1.67;0.52;;;8.00;99.90;;;;;;4946622;28;20114;-64
2021/11/06 00:11:00;;;;;;;0.85;0.75;;;8.00;99.90;;;;;;4946831;28;20089;-64
2021/11/06 00:13:27;;;;;;;1.70;0.70;;;8.00;99.90;;;;;;4944798;28;20071;-63
2021/11/06 00:15:54;;;;;;;1.10;1.02;;;8.00;99.90;;;;;;4945639;28;20409;-63
2021/11/06 00:18:21;;;;;;;3.85;0.80;;;8.00;99.90;;;;;;4945512;28;20130;-63
2021/11/06 00:20:48;;;;;;;1.45;0.68;;;8.00;99.90;;;;;;4946427;28;20469;-62
2021/11/06 00:23:15;;;;;;;2.38;0.88;;;8.00;99.90;;;;;;4945316;28;20040;-64
2021/11/06 00:25:43;;;;;;;2.72;1.30;;;8.00;99.90;;;;;;4953412;28;20067;-62
2021/11/06 00:28:10;;;;;;;2.65;1.48;;;8.10;99.90;;;;;;4958690;28;20233;-63
2021/11/06 00:30:37;;;;;;;3.28;1.08;;;8.00;99.90;;;;;;4948230;28;20560;-64
2021/11/06 00:33:04;;;;;;;3.30;0.93;;;8.10;99.90;;;;;;4947516;28;20039;-66
2021/11/06 00:35:31;;;;;;;5.57;1.17;;;8.00;99.90;;;;;;4942207;28;20142;-63
2021/11/06 00:37:58;;;;;;;2.58;0.85;;;8.10;99.90;;;;;;4961021;28;20134;-66
2021/11/06 00:40:25;;;;;;;5.72;1.70;;;8.00;99.90;;;;;;4951898;28;20046;-64
2021/11/06 00:42:53;;;;;;;0.90;0.85;;;8.00;99.90;;;;;;4952147;28;20118;-64
2021/11/06 00:45:19;;;;;;;1.45;0.55;;;8.00;99.90;;;;;;4968922;28;20070;-64
2021/11/06 00:47:47;;;;;;;1.20;0.55;;;8.00;99.90;;;;;;4952595;28;20049;-64
2021/11/06 00:50:16;;;;;;;2.45;0.60;;;8.00;99.90;;;;;;4949914;28;20043;-63
2021/11/06 00:52:47;;;;;;;3.03;1.10;;;7.90;99.90;;;;;;4950099;28;20108;-64
2021/11/06 00:55:16;;;;;;;3.40;0.73;;;7.90;99.90;;;;;;4948381;28;20113;-64
2021/11/06 00:57:43;;;;;;;1.60;0.88;;;7.90;99.90;;;;;;4969886;28;20073;-65
2021/11/06 01:00:12;;;;;;;3.10;1.05;;;7.90;99.90;;;;;;4969830;28;20109;-63
2021/11/06 01:02:39;;;;;;;3.00;1.52;;;7.90;99.90;;;;;;4973085;28;20073;-64
2021/11/06 01:05:08;;;;;;;2.83;0.93;;;7.90;99.90;;;;;;4968740;28;20098;-71
2021/11/06 01:07:35;;;;;;;2.85;0.70;;;7.90;99.90;;;;;;4960570;28;20413;-64
2021/11/06 01:10:05;;;;;;;3.17;0.60;;;7.90;99.90;;;;;;4949117;28;20179;-66
2021/11/06 01:12:32;;;;;;;2.03;1.17;;;7.80;99.90;;;;;;4951441;28;20059;-67
2021/11/06 01:15:00;;;;;;;2.72;1.35;;;7.80;99.90;;;;;;4949839;28;20039;-64
2021/11/06 01:17:27;;;;;;;0.93;0.90;;;7.80;99.90;;;;;;4953435;28;20420;-63
2021/11/06 01:19:55;;;;;;;4.28;0.60;;;7.80;99.90;;;;;;4950451;28;20051;-64
2021/11/06 01:22:22;;;;;;;2.42;1.58;;;7.70;99.90;;;;;;4953258;28;20039;-64
2021/11/06 01:24:49;;;;;;;3.83;0.93;;;7.70;99.90;;;;;;4949517;28;20102;-64
2021/11/06 01:27:16;;;;;;;2.30;1.13;;;7.70;99.90;;;;;;4951166;28;20587;-64
2021/11/06 01:29:43;;;;;;;2.30;0.70;;;7.70;99.90;;;;;;4947844;28;20129;-63
2021/11/06 01:32:10;;;;;;;0.77;0.60;;;7.70;99.90;;;;;;4962784;28;20058;-63
2021/11/06 01:34:38;;;;;;;1.50;1.13;;;7.70;99.90;;;;;;4969345;28;20053;-64
2021/11/06 01:37:05;;;;;;;1.85;0.63;;;7.70;99.90;;;;;;4955120;28;20090;-64
2021/11/06 01:39:32;;;;;;;6.40;3.10;;;7.70;99.90;;;;;;4968923;28;20475;-65
2021/11/06 01:41:59;;;;;;;2.28;1.73;;;7.70;99.90;;;;;;4979814;28;20396;-64
2021/11/06 01:44:27;;;;;;;2.00;0.60;;;7.70;99.90;;;;;;4968935;28;20126;-66
2021/11/06 01:46:54;;;;;;;1.90;0.90;;;7.70;99.90;;;;;;4971488;28;20082;-63
2021/11/06 01:49:21;;;;;;;3.17;0.90;;;7.70;99.90;;;;;;4967422;28;20039;-67
2021/11/06 01:51:49;;;;;;;5.05;1.48;;;7.70;99.90;;;;;;4970031;28;20101;-64
2021/11/06 01:54:16;;;;;;;1.65;0.60;;;7.80;99.90;;;;;;4968489;28;20526;-63
2021/11/06 01:56:43;;;;;;;0.70;0.60;;;7.80;99.90;;;;;;4968977;28;20137;-64
2021/11/06 01:59:10;;;;;;;3.97;1.08;;;7.80;99.90;;;;;;4970349;28;20101;-64
2021/11/06 02:01:37;;;;;;;1.02;0.55;;;7.80;99.90;;;;;;4969968;28;20070;-67
2021/11/06 02:04:05;;;;;;;5.55;0.73;;;7.80;99.90;;;;;;4969955;28;20101;-63
2021/11/06 02:06:32;;;;;;;2.58;0.70;;;7.80;99.90;;;;;;4960766;28;20056;-68
2021/11/06 02:09:00;;;;;;;4.45;1.23;;;7.80;99.90;;;;;;4973696;28;20504;-63
2021/11/06 02:11:28;;;;;;;3.22;1.35;;;7.90;99.90;;;;;;4957292;28;20110;-65
2021/11/06 02:13:55;;;;;;;4.38;1.10;;;7.90;99.90;;;;;;4953482;28;20509;-63
2021/11/06 02:16:22;;;;;;;1.75;0.70;;;7.90;99.90;;;;;;4951624;28;20067;-63
2021/11/06 02:18:49;;;;;;;4.25;1.00;;;7.90;99.90;;;;;;4950258;28;20465;-64
2021/11/06 02:21:16;;;;;;;5.38;0.80;;;7.90;99.90;;;;;;4948580;28;20511;-64
2021/11/06 02:23:47;;;;;;;0.95;0.47;;;7.90;99.90;;;;;;4970063;28;20043;-70
2021/11/06 02:26:17;;;;;;;2.33;0.65;;;7.90;99.90;;;;;;4969889;28;20114;-63
2021/11/06 02:29:04;;;;;;;1.80;0.73;;;7.90;99.90;;;;;;4969318;28;20121;-64
2021/11/06 02:31:31;;;;;;;6.85;1.08;;;8.00;99.90;;;;;;4966356;28;20465;-63
2021/11/06 02:33:58;;;;;;;4.13;1.00;;;7.90;99.90;;;;;;4965179;28;20349;-63
2021/11/06 02:36:25;;;;;;;2.40;0.60;;;8.00;99.90;;;;;;4961413;28;20050;-65
2021/11/06 02:38:52;;;;;;;1.05;0.70;;;8.00;99.90;;;;;;4968184;28;20081;-64
2021/11/06 02:41:19;;;;;;;1.65;0.95;;;8.00;99.90;;;;;;4970945;28;20053;-69
2021/11/06 02:43:46;;;;;;;3.13;0.68;;;8.00;99.90;;;;;;4957706;28;20066;-63
2021/11/06 02:46:13;;;;;;;1.98;0.55;;;8.00;99.90;;;;;;4970206;28;20065;-66
2021/11/06 02:48:40;;;;;;;1.38;0.70;;;7.90;99.90;;;;;;4968658;28;20448;-63
2021/11/06 02:51:07;;;;;;;3.47;1.02;;;7.90;99.90;;;;;;4967660;28;20369;-66
2021/11/06 02:53:34;;;;;;;4.20;1.00;;;7.90;99.90;;;;;;4957680;28;20490;-63
2021/11/06 02:56:01;;;;;;;4.07;0.80;;;7.90;99.90;;;;;;4971413;28;20456;-65
2021/11/06 02:58:29;;;;;;;10.05;1.05;;;7.90;99.90;;;;;;4968130;28;20043;-64
2021/11/06 03:00:57;;;;;;;4.75;1.30;;;8.00;99.90;;;;;;4970983;28;20047;-64
2021/11/06 03:03:24;;;;;;;5.55;1.15;;;8.00;99.90;;;;;;4965950;28;20046;-69
2021/11/06 03:05:51;;;;;;;1.95;0.60;;;8.00;99.90;;;;;;4949515;28;20058;-65
2021/11/06 03:08:18;;;;;;;6.10;0.95;;;7.90;99.90;;;;;;4947602;28;20243;-67
2021/11/06 03:10:45;;;;;;;3.08;1.13;;;8.00;99.90;;;;;;4951120;28;20147;-63
2021/11/06 03:13:13;;;;;;;6.50;1.08;;;8.00;99.90;;;;;;4943199;28;20099;-63
2021/11/06 03:15:39;;;;;;;2.72;0.95;;;8.00;99.90;;;;;;4949843;28;20141;-63
2021/11/06 03:18:06;;;;;;;5.90;0.90;;;8.00;99.90;;;;;;4950182;28;20066;-65
2021/11/06 03:20:33;;;;;;;1.42;1.08;;;8.00;99.90;;;;;;4951433;28;20197;-65
2021/11/06 03:23:00;;;;;;;3.28;1.00;;;8.00;99.90;;;;;;4949131;28;20085;-68
2021/11/06 03:25:28;;;;;;;5.72;2.42;;;7.90;99.90;;;;;;4951244;28;20078;-74
2021/11/06 03:27:56;;;;;;;8.25;1.30;;;8.00;99.90;;;;;;4949789;28;20158;-68
2021/11/06 03:30:24;;;;;;;5.43;1.45;;;7.90;99.90;;;;;;4947952;28;20053;-64
2021/11/06 03:32:51;;;;;;;3.08;1.20;;;7.90;99.90;;;;;;4950051;28;20068;-68
2021/11/06 03:35:18;;;;;;;7.13;1.27;;;7.90;99.90;;;;;;4949873;28;20043;-68
2021/11/06 03:37:45;;;;;;;13.70;1.95;;;7.90;99.90;;;;;;4964541;28;20062;-63
2021/11/06 03:40:13;;;;;;;12.18;3.00;;;7.90;99.90;;;;;;4960292;28;20517;-63
2021/11/06 03:42:41;;;;;;;4.35;1.40;;;7.90;99.90;;;;;;4948124;28;20092;-64
2021/11/06 03:45:10;;;;;;;10.90;2.20;;;7.80;99.90;;;;;;4948358;28;20075;-68
2021/11/06 03:47:37;;;;;;;5.57;1.23;;;7.80;99.90;;;;;;4958217;28;20070;-63
2021/11/06 03:50:06;;;;;;;9.85;1.60;;;7.80;99.90;;;;;;4949433;28;20066;-70
2021/11/06 03:52:33;;;;;;;11.02;1.95;;;7.80;99.90;;;;;;4958261;28;20102;-65
2021/11/06 03:55:01;;;;;;;9.48;2.33;;;7.80;99.90;;;;;;4950022;28;20083;-64
2021/11/06 03:57:28;;;;;;;11.27;1.90;;;7.80;99.90;;;;;;4950384;28;20047;-68
2021/11/06 03:59:55;;;;;;;8.35;1.48;;;7.80;99.90;;;;;;4949481;28;20039;-64
2021/11/06 04:02:22;;;;;;;5.15;1.38;;;7.80;99.90;;;;;;4951476;28;20059;-64
2021/11/06 04:04:49;;;;;;;13.48;2.33;;;7.80;99.90;;;;;;4951835;28;20122;-64
2021/11/06 04:07:16;;;;;;;5.35;2.35;;;7.90;99.90;;;;;;4956761;28;20193;-63
2021/11/06 04:09:43;;;;;;;11.18;2.65;;;7.90;99.90;;;;;;4948043;28;20123;-63
2021/11/06 04:12:10;;;;;;;7.10;1.88;;;7.90;99.90;;;;;;4952976;28;20079;-67
2021/11/06 04:14:37;;;;;;;8.98;1.85;;;7.90;99.90;;;;;;4950541;28;20052;-65
2021/11/06 04:17:04;;;;;;;18.33;4.05;;;7.90;99.90;;;;;;4952416;28;20059;-65
2021/11/06 04:19:30;;;;;;;7.47;2.28;;;7.90;99.90;;;;;;4953181;28;20180;-65
2021/11/06 04:21:58;;;;;;;7.78;2.47;;;7.90;99.90;;;;;;4953220;28;20788;-66
2021/11/06 04:24:25;;;;;;;9.52;2.45;;;7.90;99.90;;;;;;4954235;28;20121;-63
2021/11/06 04:26:52;;;;;;;8.98;1.83;;;7.90;99.90;;;;;;4953026;28;20074;-67
2021/11/06 04:29:19;;;;;;;13.70;2.83;;;8.00;99.90;;;;;;4951941;28;20066;-63
2021/11/06 04:31:46;;;;;;;6.80;1.58;;;8.00;99.90;;;;;;4952485;28;20051;-64
2021/11/06 04:34:13;;;;;;;10.25;2.10;;;8.00;99.90;;;;;;4950127;28;20055;-64
2021/11/06 04:36:40;;;;;;;4.93;2.83;;;8.00;99.90;;;;;;4953494;28;20106;-63
2021/11/06 04:39:07;;;;;;;14.38;2.63;;;7.90;99.90;;;;;;4950216;28;20052;-66
2021/11/06 04:41:34;;;;;;;7.57;2.08;;;8.00;99.90;;;;;;4972416;28;20149;-67
2021/11/06 04:44:01;;;;;;;12.60;2.08;;;8.00;99.90;;;;;;4969170;28;20145;-64
2021/11/06 04:46:28;;;;;;;6.68;1.70;;;8.00;99.90;;;;;;4973837;28;20130;-66
2021/11/06 04:48:55;;;;;;;7.50;2.03;;;8.00;99.90;;;;;;4971712;28;20129;-71
2021/11/06 04:51:22;;;;;;;6.97;1.85;;;8.00;99.90;;;;;;4968988;28;20117;-63
2021/11/06 04:53:49;;;;;;;8.10;2.60;;;8.10;99.90;;;;;;4970105;28;20043;-65
2021/11/06 04:56:16;;;;;;;9.13;2.10;;;8.10;99.90;;;;;;4971567;28;20489;-67
2021/11/06 04:58:43;;;;;;;6.22;1.83;;;8.10;99.90;;;;;;4969346;28;20514;-64
2021/11/06 05:01:10;;;;;;;10.23;2.05;;;8.10;99.90;;;;;;4968617;28;20453;-64
2021/11/06 05:03:37;;;;;;;12.30;2.58;;;8.10;99.90;;;;;;4971648;28;20038;-64
2021/11/06 05:06:04;;;;;;;14.55;2.47;;;8.10;99.90;;;;;;4971785;28;20947;-63
2021/11/06 05:08:31;;;;;;;3.53;1.83;;;8.10;99.90;;;;;;4971359;28;20101;-66
2021/11/06 05:10:58;;;;;;;7.80;2.00;;;8.00;99.90;;;;;;4955785;28;20051;-67
2021/11/06 05:13:25;;;;;;;8.07;2.05;;;8.10;99.90;;;;;;4949546;28;20106;-63
2021/11/06 05:15:51;;;;;;;12.70;2.60;;;8.10;99.90;;;;;;4952633;28;20055;-66
2021/11/06 05:18:20;;;;;;;10.10;2.00;;;8.10;99.90;;;;;;4955110;28;20157;-64
2021/11/06 05:20:47;;;;;;;8.27;2.20;;;8.20;99.90;;;;;;4956137;28;20089;-66
2021/11/06 05:23:14;;;;;;;13.60;2.75;;;8.20;99.90;;;;;;4964015;28;20054;-63
2021/11/06 05:25:44;;;;;;;7.57;2.05;;;8.10;99.90;;;;;;4958264;28;20106;-64
2021/11/06 05:28:13;;;;;;;9.57;2.05;;;8.20;99.90;;;;;;4966157;28;20050;-64
2021/11/06 05:30:42;;;;;;;13.75;1.88;;;8.20;99.90;;;;;;4952849;28;20039;-63
2021/11/06 05:33:10;;;;;;;10.13;3.37;;;8.20;99.90;;;;;;4951045;28;20078;-70
2021/11/06 05:35:37;;;;;;;8.75;2.22;;;8.20;99.90;;;;;;4950802;28;20281;-64
2021/11/06 05:38:04;;;;;;;11.93;2.08;;;8.20;99.90;;;;;;4950884;28;20130;-64
2021/11/06 05:40:32;;;;;;;4.25;2.33;;;8.20;99.90;;;;;;4943089;28;20097;-67
2021/11/06 05:42:59;;;;;;;7.53;2.03;;;8.30;99.90;;;;;;4952707;28;20489;-66
2021/11/06 05:45:27;;;;;;;9.07;2.88;;;8.30;99.90;;;;;;4952579;28;20370;-63
2021/11/06 05:47:54;;;;;;;6.43;2.42;;;8.40;99.90;;;;;;4950359;28;20047;-65
2021/11/06 05:50:21;;;;;;;4.00;2.17;;;8.40;99.90;;;;;;4952347;28;20456;-64
2021/11/06 05:52:48;;;;;;;15.02;2.50;;;8.50;99.90;;;;;;4952998;28;20070;-67
2021/11/06 05:55:17;;;;;;;14.25;2.72;;;8.50;99.90;;;;;;4951454;28;20071;-65
2021/11/06 05:57:44;;;;;;;8.20;2.15;;;8.50;99.90;;;;;;4956782;28;20047;-64
2021/11/06 06:00:18;;;;;;;13.07;3.30;;;8.50;99.90;;;;;;4950342;28;20082;-64
2021/11/06 06:02:46;;;;;;;5.68;1.83;;;8.60;99.90;;;;;;4954032;28;20122;-64
2021/11/06 06:05:13;;;;;;;8.48;2.53;;;8.50;99.90;;;;;;4946927;28;20402;-64
2021/11/06 06:07:41;;;;;;;8.70;1.80;;;8.50;99.90;;;;;;4952559;28;20089;-64
2021/11/06 06:10:11;;;;;;;10.25;3.22;;;8.50;99.90;;;;;;4950424;28;20047;-69
2021/11/06 06:12:40;;;;;;;14.82;2.58;;;8.50;99.90;;;;;;4956390;28;20047;-67
2021/11/06 06:15:07;;;;;;;9.90;1.67;;;8.50;99.90;;;;;;4950160;28;20039;-66
2021/11/06 06:17:37;;;;;;;5.05;1.48;;;8.50;99.90;;;;;;4949901;28;20141;-71
2021/11/06 06:20:08;;;;;;;12.38;2.28;;;8.60;99.90;;;;;;4949463;28;20039;-66
2021/11/06 06:22:37;;;;;;;12.27;3.45;;;8.60;99.90;;;;;;4962116;28;20473;-65
2021/11/06 06:25:08;;;;;;;14.77;3.25;;;8.50;99.90;;;;;;4970790;28;20077;-67
2021/11/06 06:27:35;;;;;;;9.07;2.75;;;8.50;99.90;;;;;;4965557;28;20125;-66
2021/11/06 06:30:04;;;;;;;13.50;2.58;;;8.40;99.90;;;;;;4961691;28;20044;-64
2021/11/06 06:32:31;;;;;;;13.70;4.18;;;8.40;99.90;;;;;;4948834;28;20106;-63
2021/11/06 06:34:58;;;;;;;15.30;2.53;;;8.30;99.90;;;;;;4948967;28;20043;-66
2021/11/06 06:37:25;;;;;;;10.65;2.63;;;8.30;99.90;;;;;;4965846;28;20141;-65
2021/11/06 06:39:52;;;;;;;11.45;2.17;;;8.30;99.90;;;;;;4967600;28;20050;-64
2021/11/06 06:42:20;;;;;;;18.25;4.28;;;8.40;99.90;;;;;;4970839;28;20043;-64
2021/11/06 06:44:47;;;;;;;13.65;3.10;;;8.40;99.90;;;;;;4967093;28;20137;-64
2021/11/06 06:47:14;;;;;;;15.50;3.28;;;8.40;99.90;;;;;;4966975;28;20408;-66
2021/11/06 06:49:41;;;;;;;10.32;2.92;;;8.40;99.90;;;;;;4969372;28;20150;-64
2021/11/06 06:52:08;;;;;;;13.50;2.72;;;8.40;99.90;;;;;;4968720;28;20174;-73
2021/11/06 06:54:35;;;;;;;19.15;2.97;;;8.30;99.90;;;;;;4971387;28;20421;-64
2021/11/06 06:57:02;;;;;;;9.93;2.80;;;8.30;99.90;;;;;;4967383;28;20050;-67
2021/11/06 06:59:32;;;;;;;13.63;3.67;;;8.30;99.90;;;;;;4965899;28;20058;-69
2021/11/06 07:02:01;;;;;;;19.73;5.47;;;8.30;99.90;;;;;;4971879;28;20054;-72
2021/11/06 07:04:28;;;;;;;10.55;3.63;;;8.40;99.90;;;;;;4968056;28;20134;-71
2021/11/06 07:06:56;;;;;;;12.25;2.97;;;8.40;99.90;;;;;;4964890;28;20085;-64
2021/11/06 07:09:24;;;;;;;8.27;2.83;;;8.50;99.90;;;;;;4968102;28;20062;-74
2021/11/06 07:11:52;;;;;;;12.88;3.50;;;8.40;99.90;;;;;;4966694;28;20412;-66
2021/11/06 07:14:20;;;;;;;7.85;2.47;;;8.50;99.90;;;;;;4965450;28;20130;-65
2021/11/06 07:16:48;;;;;;;8.82;2.83;;;8.50;99.90;;;;;;4967793;28;20138;-65
2021/11/06 07:19:15;;;;;;;11.95;2.53;;;8.60;99.90;;;;;;4965077;28;20078;-73
2021/11/06 07:21:42;;;;;;;9.27;3.15;;;8.60;99.90;;;;;;4966976;28;20506;-67
2021/11/06 07:24:09;;;;;;;21.70;4.95;;;8.60;99.90;;;;;;4956834;28;20046;-65
2021/11/06 07:26:36;;;;;;;15.27;3.65;;;8.70;99.90;;;;;;4967515;28;20170;-64
2021/11/06 07:29:04;;;;;;;19.70;3.65;;;8.70;99.90;;;;;;4968141;28;20070;-66
2021/11/06 07:31:31;;;;;;;18.20;3.60;;;8.70;99.90;;;;;;4967426;28;20070;-66
2021/11/06 07:33:58;;;;;;;9.88;3.22;;;8.80;99.90;;;;;;4969526;28;20051;-72
2021/11/06 07:36:25;;;;;;;21.70;3.72;;;8.80;99.90;;;;;;4968361;28;20357;-64
2021/11/06 07:38:53;;;;;;;15.75;3.65;;;8.80;99.90;;;;;;4967133;28;20085;-67
2021/11/06 07:41:22;;;;;;;15.68;3.08;;;8.80;99.90;;;;;;4962238;28;20047;-73
2021/11/06 07:43:49;;;;;;;9.88;3.65;;;8.80;99.90;;;;;;4964893;28;20138;-70
2021/11/06 07:46:16;;;;;;;15.18;5.25;;;8.90;99.90;;;;;;4964902;28;20055;-67
2021/11/06 07:48:43;;;;;;;23.80;5.15;;;8.90;99.90;;;;;;4972682;28;20077;-72
2021/11/06 07:51:10;;;;;;;14.13;2.72;;;9.00;99.90;;;;;;4963055;28;20125;-63
2021/11/06 07:53:37;;;;;;;12.13;2.70;;;9.10;99.90;;;;;;4968822;28;20412;-64
2021/11/06 07:56:05;;;;;;;13.05;2.83;;;9.10;99.90;;;;;;4966709;28;20081;-68
2021/11/06 07:58:32;;;;;;;9.18;3.03;;;9.10;99.90;;;;;;4966368;28;20062;-63
2021/11/06 08:01:00;;;;;;;15.95;2.47;;;9.20;99.90;;;;;;4967602;28;20082;-67
2021/11/06 08:03:27;;;;;;;9.10;2.60;;;9.20;99.90;;;;;;4966487;28;20050;-68
2021/11/06 08:05:54;;;;;;;10.77;3.05;;;9.30;99.90;;;;;;4969547;28;20094;-62
2021/11/06 08:08:21;;;;;;;11.75;3.65;;;9.30;99.90;;;;;;4958830;28;20055;-63
2021/11/06 08:10:53;;;;;;;8.85;2.45;;;9.30;99.90;;;;;;4963018;28;20053;-68
2021/11/06 08:13:20;;;;;;;11.23;2.55;;;9.30;99.90;;;;;;4965539;28;20133;-64
2021/11/06 08:15:47;;;;;;;10.02;4.25;;;9.40;99.90;;;;;;4967366;28;20058;-70
2021/11/06 08:18:14;;;;;;;7.32;2.15;;;9.40;99.90;;;;;;4967392;28;20051;-64
2021/11/06 08:20:41;;;;;;;18.13;4.63;;;9.40;99.90;;;;;;4967467;28;20047;-71
2021/11/06 08:23:08;;;;;;;16.10;3.95;;;9.40;99.90;;;;;;4964357;28;20071;-70
2021/11/06 08:25:35;;;;;;;14.30;3.03;;;9.50;99.90;;;;;;4982391;28;20141;-65
2021/11/06 08:28:03;;;;;;;9.32;2.53;;;9.50;99.90;;;;;;4964597;28;20075;-64
2021/11/06 08:30:30;;;;;;;9.63;2.35;;;9.50;99.90;;;;;;4970504;28;20046;-64
2021/11/06 08:32:58;;;;;;;17.38;3.35;;;9.50;99.90;;;;;;4969924;28;20140;-65
2021/11/06 08:35:27;;;;;;;17.27;2.47;;;9.60;99.90;;;;;;4969077;28;20047;-63
2021/11/06 08:37:56;;;;;;;12.43;2.20;;;9.60;99.90;;;;;;4971646;28;20476;-63
2021/11/06 08:40:23;;;;;;;15.43;2.58;;;9.60;99.90;;;;;;4968980;28;20531;-66
2021/11/06 08:42:50;;;;;;;11.43;3.00;;;9.60;99.90;;;;;;4967921;28;20135;-64
2021/11/06 08:45:17;;;;;;;10.85;3.97;;;9.60;99.90;;;;;;4962886;28;20080;-63
2021/11/06 08:47:44;;;;;;;10.20;3.17;;;9.60;99.90;;;;;;4968153;28;20818;-63
2021/11/06 08:50:15;;;;;;;8.27;2.10;;;9.70;99.90;;;;;;4960081;28;20125;-63
2021/11/06 08:52:42;;;;;;;8.02;1.75;;;9.60;99.90;;;;;;4947887;28;20487;-66
2021/11/06 08:55:10;;;;;;;6.75;1.70;;;9.60;99.90;;;;;;4964380;28;20526;-64
2021/11/06 08:57:39;;;;;;;9.70;1.60;;;9.70;99.90;;;;;;4969185;28;20804;-64
2021/11/06 09:00:10;;;;;;;6.13;1.98;;;9.70;99.90;;;;;;4967962;28;20062;-69
2021/11/06 09:02:38;;;;;;;10.75;1.98;;;9.70;99.90;;;;;;4966775;28;20142;-63
2021/11/06 09:05:07;;;;;;;7.63;1.70;;;9.70;99.90;;;;;;4967603;28;20174;-65
2021/11/06 09:07:35;;;;;;;11.15;1.85;;;9.70;99.90;;;;;;4945384;28;20122;-68
2021/11/06 09:10:07;;;;;;;13.23;2.47;;;9.70;99.90;;;;;;4949168;28;20119;-65
2021/11/06 09:12:34;;;;;;;16.77;3.53;;;9.70;99.90;;;;;;4946278;28;20054;-69
2021/11/06 09:15:01;;;;;;;9.10;2.58;;;9.80;99.90;;;;;;4949559;28;20051;-67
2021/11/06 09:17:29;;;;;;;13.93;2.15;;;9.80;99.90;;;;;;4948102;28;20409;-66
2021/11/06 09:19:56;;;;;;;9.73;2.65;;;9.80;99.90;;;;;;4950439;28;20517;-63
2021/11/06 09:22:24;;;;;;;14.25;2.50;;;9.80;99.90;;;;;;4942030;28;20401;-64
2021/11/06 09:24:52;;;;;;;7.88;2.60;;;9.80;99.90;;;;;;4951673;28;20082;-64
2021/11/06 09:27:19;;;;;;;12.07;2.00;;;9.80;99.90;;;;;;4944455;28;20523;-65
2021/11/06 09:29:48;;;;;;;8.60;2.25;;;9.80;99.90;;;;;;4955911;28;20157;-64
2021/11/06 09:32:15;;;;;;;11.32;1.65;;;9.80;99.90;;;;;;4965244;28;20494;-66
2021/11/06 09:34:42;;;;;;;14.32;3.13;;;9.80;99.90;;;;;;4966201;28;20591;-66
2021/11/06 09:37:09;;;;;;;8.88;2.30;;;9.80;99.90;;;;;;4968767;28;20054;-64
2021/11/06 09:39:36;;;;;;;8.68;2.80;;;9.80;99.90;;;;;;4969696;28;20424;-63
2021/11/06 09:42:04;;;;;;;6.28;1.63;;;9.80;99.90;;;;;;4967826;28;20059;-64
2021/11/06 09:44:34;;;;;;;7.15;1.90;;;9.80;99.90;;;;;;4966082;28;20082;-68
2021/11/06 09:47:08;;;;;;;11.23;1.92;;;9.80;99.90;;;;;;4963503;28;20054;-67
2021/11/06 09:49:37;;;;;;;9.57;1.30;;;9.80;99.90;;;;;;4943414;28;20476;-65
2021/11/06 09:52:04;;;;;;;10.80;2.17;;;9.80;99.90;;;;;;4952241;28;20102;-66
2021/11/06 09:54:31;;;;;;;13.75;2.35;;;9.80;99.90;;;;;;4946234;28;20051;-66
2021/11/06 09:56:59;;;;;;;12.57;3.45;;;9.80;99.90;;;;;;4952188;28;20076;-67
2021/11/06 09:59:26;;;;;;;18.63;4.57;;;9.80;99.90;;;;;;4962107;28;20042;-64
2021/11/06 10:01:54;;;;;;;11.27;2.13;;;9.80;99.90;;;;;;4963701;28;20039;-64
2021/11/06 10:04:21;;;;;;;11.88;2.65;;;9.80;99.90;;;;;;4951065;28;20138;-71
2021/11/06 10:06:48;;;;;;;9.32;1.60;;;9.80;99.90;;;;;;4950034;28;20152;-63
2021/11/06 10:09:17;;;;;;;7.80;1.75;;;9.80;99.90;;;;;;4960643;28;20069;-67
2021/11/06 10:11:51;;;;;;;13.20;1.60;;;9.80;99.90;;;;;;4964313;28;20051;-72
2021/11/06 10:14:20;;;;;;;10.27;4.43;;;9.80;99.90;;;;;;4964572;28;20152;-65
2021/11/06 10:16:57;;;;;;;8.98;1.98;;;9.80;99.90;;;;;;4965675;28;20556;-66
2021/11/06 10:19:45;;;;;;;8.65;2.55;;;9.80;99.90;;;;;;4961163;28;20070;-67
2021/11/06 10:22:17;;;;;;;6.90;2.80;;;9.80;99.90;;;;;;4965298;28;20039;-70
2021/11/06 10:24:48;;;;;;;12.75;2.22;;;9.80;99.90;;;;;;4963424;28;20046;-64
2021/11/06 10:27:47;;;;;;;11.52;2.65;;;9.80;99.90;;;;;;4967182;28;20121;-69
2021/11/06 10:30:20;;;;;;;7.65;1.90;;;9.80;99.90;;;;;;4967091;28;20133;-64
2021/11/06 10:33:09;;;;;;;7.15;2.15;;;9.90;99.90;;;;;;4965774;28;20130;-66
2021/11/06 10:35:42;;;;;;;11.68;1.88;;;9.90;99.90;;;;;;4965748;28;20066;-64
2021/11/06 10:38:30;;;;;;;4.90;2.00;;;10.00;99.90;;;;;;4965328;28;20047;-66
2021/11/06 10:41:07;;;;;;;6.95;2.55;;;10.00;99.90;;;;;;4966930;28;20043;-63
2021/11/06 10:43:37;;;;;;;8.20;2.05;;;10.00;99.90;;;;;;4946812;28;20598;-64
2021/11/06 10:46:10;;;;;;;10.30;2.83;;;10.00;99.90;;;;;;4968554;28;20113;-64
2021/11/06 10:48:37;;;;;;;9.70;2.10;;;9.90;99.90;;;;;;4964259;28;20090;-65
2021/11/06 10:51:07;;;;;;;15.73;3.17;;;9.90;99.90;;;;;;4971687;28;20097;-67
2021/11/06 10:53:48;;;;;;;13.38;1.50;;;9.90;99.90;;;;;;4946010;28;20589;-63
2021/11/06 10:56:27;;;;;;;12.48;2.45;;;9.90;99.90;;;;;;4949756;28;20469;-69
2021/11/06 10:58:57;;;;;;;9.63;2.10;;;9.90;99.90;;;;;;4916703;28;20405;-69
2021/11/06 11:01:30;;;;;;;;;;;9.90;99.90;;;;;;4919995;28;20055;-64
2021/11/06 11:04:08;;;;;;;8.27;2.63;;;9.90;99.90;;;;;;4923420;28;20068;-65
2021/11/06 11:06:46;;;;;;;13.57;2.33;;;9.90;99.90;;;;;;4918239;28;20067;-70
2021/11/06 11:09:22;;;;;;;9.23;2.40;;;9.90;99.90;;;;;;4937813;28;20153;-73
2021/11/06 11:11:52;;;;;;;6.65;1.52;;;9.90;99.90;;;;;;4915619;28;20575;-71
2021/11/06 11:14:21;;;;;;;6.15;1.27;;;9.90;99.90;;;;;;4917752;28;20630;-68
2021/11/06 11:16:54;;;;;;;3.90;1.20;;;9.90;99.90;;;;;;4939799;28;20147;-68
2021/11/06 11:19:44;;;;;;;8.00;1.70;;;9.90;99.90;;;;;;4941193;28;20085;-63
2021/11/06 11:22:31;;;;;;;7.75;1.70;;;10.00;99.90;;;;;;4937376;28;20798;-64
2021/11/06 11:24:58;;;;;;;3.78;0.93;;;10.00;99.90;;;;;;4942376;28;20054;-73
2021/11/06 11:27:44;;;;;;;8.73;2.22;;;10.00;99.90;;;;;;4918407;28;21163;-73
2021/11/06 11:30:12;;;;;;;13.15;1.77;;;10.00;99.90;;;;;;4921275;28;20066;-64
2021/11/06 11:32:39;;;;;;;8.32;2.40;;;10.00;99.90;;;;;;4917968;28;20047;-67
2021/11/06 11:35:07;;;;;;;8.07;1.58;;;10.00;99.90;;;;;;4919304;28;20519;-68
2021/11/06 11:37:34;;;;;;;14.07;1.60;;;10.00;99.90;;;;;;4920134;28;20078;-63
2021/11/06 11:40:03;;;;;;;6.88;1.35;;;9.90;99.90;;;;;;4919863;28;20046;-70
2021/11/06 11:43:05;;;;;;;7.25;2.22;;;9.80;99.90;;;;;;4918445;28;20145;-70
2021/11/06 11:45:45;;;;;;;10.27;2.63;;;9.80;99.90;;;;;;4929124;28;20155;-66
2021/11/06 11:48:22;;;;;;;4.82;0.85;;;9.70;99.90;;;;;;4946746;28;20090;-63
2021/11/06 11:50:50;;;;;;;7.50;0.93;;;9.60;99.90;;;;;;4944549;28;20141;-66
2021/11/06 11:53:43;;;;;;;13.65;1.55;;;9.60;99.90;;;;;;4962146;28;20122;-64
2021/11/06 11:56:19;;;;;;;4.43;1.08;;;9.60;99.90;;;;;;4962410;28;21402;-64
2021/11/06 11:58:46;;;;;;;4.00;1.42;;;9.60;99.90;;;;;;4976498;28;20358;-66
2021/11/06 12:01:21;;;;;;;5.20;1.10;;;9.60;99.90;;;;;;4962190;28;20070;-66
2021/11/06 12:03:50;;;;;;;5.57;0.85;;;9.60;99.90;;;;;;4964769;28;20073;-70
2021/11/06 12:06:29;;;;;;;5.38;0.60;;;9.60;99.90;;;;;;4953878;28;20070;-65
2021/11/06 12:09:11;;;;;;;11.93;1.27;;;9.60;99.90;;;;;;4943661;28;20142;-64
2021/11/06 12:11:52;;;;;;;4.22;0.82;;;9.60;99.90;;;;;;4943544;28;20452;-67
2021/11/06 12:14:28;;;;;;;10.20;1.38;;;9.60;99.90;;;;;;4957774;28;20133;-67
2021/11/06 12:16:59;;;;;;;7.55;1.35;;;9.70;99.90;;;;;;4957943;28;20425;-68
2021/11/06 12:19:46;;;;;;;4.70;1.73;;;9.70;99.90;;;;;;4962016;28;20050;-64
2021/11/06 12:22:21;;;;;;;4.57;1.17;;;9.70;99.90;;;;;;4961284;28;20125;-63
2021/11/06 12:24:51;;;;;;;6.47;1.13;;;9.60;99.90;;;;;;4966541;28;20097;-67
2021/11/06 12:27:33;;;;;;;3.83;0.68;;;9.50;99.90;;;;;;4912743;28;20118;-69
2021/11/06 12:30:01;;;;;;;4.18;0.93;;;9.50;99.90;;;;;;4902749;28;20050;-67
2021/11/06 12:32:43;;;;;;;3.25;0.93;;;9.50;99.90;;;;;;4904531;28;20190;-71
2021/11/06 12:35:10;;;;;;;1.88;0.73;;;9.50;99.90;;;;;;4886228;28;20142;-74
2021/11/06 12:37:40;;;;;;;3.92;0.55;;;9.60;99.90;;;;;;4889407;28;20125;-72
2021/11/06 12:40:13;;;;;;;4.00;1.67;;;9.60;99.90;;;;;;4908009;28;20496;-66
2021/11/06 12:42:42;;;;;;;6.28;1.33;;;9.60;99.90;;;;;;4907499;28;20055;-65
2021/11/06 12:45:13;;;;;;;2.22;0.88;;;9.70;99.90;;;;;;4913696;28;20047;-68
2021/11/06 12:48:12;;;;;;;4.93;1.75;;;9.70;99.90;;;;;;4913795;28;20070;-72
2021/11/06 12:50:46;;;;;;;3.22;0.60;;;9.60;99.90;;;;;;4915001;28;20051;-68
2021/11/06 12:53:35;;;;;;;4.80;1.10;;;9.60;99.90;;;;;;4926723;28;20042;-63
2021/11/06 12:56:08;;;;;;;7.28;1.08;;;9.60;99.90;;;;;;4915149;28;21783;-67
2021/11/06 12:58:37;;;;;;;1.60;0.70;;;9.60;99.90;;;;;;4911126;28;20061;-66
2021/11/06 13:01:22;;;;;;;4.63;1.00;;;9.60;99.90;;;;;;4910755;28;20137;-72
2021/11/06 13:03:49;;;;;;;5.60;0.98;;;9.60;99.90;;;;;;4934413;28;20083;-65